Terminal Aerodrome Forecast
Issued by NWS Greer, SC

Home | Current Version | Previous Version | Text Only | Print | Product List | Glossary On
Versions: 1 2 3 4 5 6 7 8 9 10 11 12 13 14 15 16 17 18 19 20 21 22 23 24 25 26 27 28 29 30 31 32 33 34 35 36 37 38 39 40 41 42 43 44
000
FTUS42 KGSP 160500
TAFAVL
TAF
KAVL 160540Z 1606/1706 19003KT P6SM SCT006 BKN013
      TEMPO 1606/1608 5SM BR BKN006 OVC015
     FM160800 35003KT 5SM BR OVC005
     FM161300 35006KT P6SM BKN007
     FM161500 35008KT P6SM SCT027
     FM161700 33007KT P6SM BKN040 PROB30 1619/1624 4SM TSRA BKN030CB
     FM170200 00000KT P6SM BKN019=

USA.gov is the U.S. government's official web portal to all federal, state and local government web resources and services.